sensor_id;sensor_type;location;lat;lon;timestamp;temperature;humidity
65995;HTU21D;52764;51.036;5.852;2024-03-08T00:00:28;6.27;63.11
65995;HTU21D;52764;51.036;5.852;2024-03-08T00:02:53;6.19;63.20
65995;HTU21D;52764;51.036;5.852;2024-03-08T00:05:19;6.15;63.33
65995;HTU21D;52764;51.036;5.852;2024-03-08T00:07:45;6.15;63.35
65995;HTU21D;52764;51.036;5.852;2024-03-08T00:10:13;6.14;63.35
65995;HTU21D;52764;51.036;5.852;2024-03-08T00:12:43;6.10;63.23
65995;HTU21D;52764;51.036;5.852;2024-03-08T00:15:10;6.12;63.32
65995;HTU21D;52764;51.036;5.852;2024-03-08T00:17:36;6.12;63.37
65995;HTU21D;52764;51.036;5.852;2024-03-08T00:20:02;6.14;63.29
65995;HTU21D;52764;51.036;5.852;2024-03-08T00:22:34;6.14;63.30
65995;HTU21D;52764;51.036;5.852;2024-03-08T00:25:00;6.16;63.18
65995;HTU21D;52764;51.036;5.852;2024-03-08T00:27:27;6.11;63.22
65995;HTU21D;52764;51.036;5.852;2024-03-08T00:29:52;6.07;63.38
65995;HTU21D;52764;51.036;5.852;2024-03-08T00:32:18;6.08;70.32
65995;HTU21D;52764;51.036;5.852;2024-03-08T00:34:44;5.94;63.78
65995;HTU21D;52764;51.036;5.852;2024-03-08T00:37:10;6.00;63.56
65995;HTU21D;52764;51.036;5.852;2024-03-08T00:39:35;5.99;63.59
65995;HTU21D;52764;51.036;5.852;2024-03-08T00:42:01;5.98;63.65
65995;HTU21D;52764;51.036;5.852;2024-03-08T00:44:27;5.95;63.71
65995;HTU21D;52764;51.036;5.852;2024-03-08T00:46:53;5.94;63.78
65995;HTU21D;52764;51.036;5.852;2024-03-08T00:49:18;5.77;64.26
65995;HTU21D;52764;51.036;5.852;2024-03-08T00:51:44;5.71;64.56
65995;HTU21D;52764;51.036;5.852;2024-03-08T00:54:10;5.76;64.53
65995;HTU21D;52764;51.036;5.852;2024-03-08T00:56:36;5.74;64.54
65995;HTU21D;52764;51.036;5.852;2024-03-08T00:59:04;5.75;64.47
65995;HTU21D;52764;51.036;5.852;2024-03-08T01:01:30;5.82;64.10
65995;HTU21D;52764;51.036;5.852;2024-03-08T01:03:56;5.81;64.09
65995;HTU21D;52764;51.036;5.852;2024-03-08T01:06:22;5.78;71.84
65995;HTU21D;52764;51.036;5.852;2024-03-08T01:08:48;5.77;64.18
65995;HTU21D;52764;51.036;5.852;2024-03-08T01:11:18;5.77;64.20
65995;HTU21D;52764;51.036;5.852;2024-03-08T01:13:44;5.64;64.44
65995;HTU21D;52764;51.036;5.852;2024-03-08T01:16:13;5.67;64.42
65995;HTU21D;52764;51.036;5.852;2024-03-08T01:18:38;5.63;64.59
65995;HTU21D;52764;51.036;5.852;2024-03-08T01:21:04;5.61;64.77
65995;HTU21D;52764;51.036;5.852;2024-03-08T01:23:30;5.53;64.91
65995;HTU21D;52764;51.036;5.852;2024-03-08T01:25:56;5.56;64.91
65995;HTU21D;52764;51.036;5.852;2024-03-08T01:28:26;5.57;64.76
65995;HTU21D;52764;51.036;5.852;2024-03-08T01:30:52;5.51;64.88
65995;HTU21D;52764;51.036;5.852;2024-03-08T01:33:25;5.51;64.91
65995;HTU21D;52764;51.036;5.852;2024-03-08T01:35:52;5.53;64.85
65995;HTU21D;52764;51.036;5.852;2024-03-08T01:38:18;5.49;64.95
65995;HTU21D;52764;51.036;5.852;2024-03-08T01:40:44;5.40;65.21
65995;HTU21D;52764;51.036;5.852;2024-03-08T01:43:20;5.40;65.27
65995;HTU21D;52764;51.036;5.852;2024-03-08T01:45:47;13.64;65.35
65995;HTU21D;52764;51.036;5.852;2024-03-08T01:48:15;5.34;65.48
65995;HTU21D;52764;51.036;5.852;2024-03-08T01:50:41;5.35;65.54
65995;HTU21D;52764;51.036;5.852;2024-03-08T01:53:08;5.28;65.69
65995;HTU21D;52764;51.036;5.852;2024-03-08T01:55:36;5.31;65.69
65995;HTU21D;52764;51.036;5.852;2024-03-08T01:58:04;5.23;65.83
65995;HTU21D;52764;51.036;5.852;2024-03-08T02:00:33;5.15;65.78
65995;HTU21D;52764;51.036;5.852;2024-03-08T02:02:59;5.21;65.98
65995;HTU21D;52764;51.036;5.852;2024-03-08T02:05:26;5.15;66.16
65995;HTU21D;52764;51.036;5.852;2024-03-08T02:07:52;4.97;66.64
65995;HTU21D;52764;51.036;5.852;2024-03-08T02:10:17;4.94;66.80
65995;HTU21D;52764;51.036;5.852;2024-03-08T02:12:44;4.84;67.18
65995;HTU21D;52764;51.036;5.852;2024-03-08T02:15:12;4.90;66.88
65995;HTU21D;52764;51.036;5.852;2024-03-08T02:17:37;4.76;67.34
65995;HTU21D;52764;51.036;5.852;2024-03-08T02:20:03;4.89;77.38
65995;HTU21D;52764;51.036;5.852;2024-03-08T02:22:30;4.34;66.89
65995;HTU21D;52764;51.036;5.852;2024-03-08T02:24:58;4.84;67.01
65995;HTU21D;52764;51.036;5.852;2024-03-08T02:27:27;4.87;66.85
65995;HTU21D;52764;51.036;5.852;2024-03-08T02:29:57;4.80;66.99
65995;HTU21D;52764;51.036;5.852;2024-03-08T02:32:23;4.74;62.18
65995;HTU21D;52764;51.036;5.852;2024-03-08T02:34:50;4.78;67.01
65995;HTU21D;52764;51.036;5.852;2024-03-08T02:37:16;4.69;67.27
65995;HTU21D;52764;51.036;5.852;2024-03-08T02:39:43;4.66;67.44
65995;HTU21D;52764;51.036;5.852;2024-03-08T02:42:09;4.66;67.25
65995;HTU21D;52764;51.036;5.852;2024-03-08T02:44:34;4.60;67.56
65995;HTU21D;52764;51.036;5.852;2024-03-08T02:47:00;4.65;67.30
65995;HTU21D;52764;51.036;5.852;2024-03-08T02:49:26;4.53;67.76
65995;HTU21D;52764;51.036;5.852;2024-03-08T02:51:53;-31.94;67.78
65995;HTU21D;52764;51.036;5.852;2024-03-08T02:54:19;4.46;68.03
65995;HTU21D;52764;51.036;5.852;2024-03-08T02:56:46;3.70;67.59
65995;HTU21D;52764;51.036;5.852;2024-03-08T02:59:14;4.48;67.96
65995;HTU21D;52764;51.036;5.852;2024-03-08T03:01:43;4.51;67.75
65995;HTU21D;52764;51.036;5.852;2024-03-08T03:04:09;4.46;68.04
65995;HTU21D;52764;51.036;5.852;2024-03-08T03:06:35;4.49;67.93
65995;HTU21D;52764;51.036;5.852;2024-03-08T03:09:01;4.36;68.35
65995;HTU21D;52764;51.036;5.852;2024-03-08T03:11:27;4.39;68.16
65995;HTU21D;52764;51.036;5.852;2024-03-08T03:13:53;4.48;67.94
65995;HTU21D;52764;51.036;5.852;2024-03-08T03:16:19;4.36;68.28
65995;HTU21D;52764;51.036;5.852;2024-03-08T03:18:46;4.39;68.27
65995;HTU21D;52764;51.036;5.852;2024-03-08T03:21:13;4.39;68.20
65995;HTU21D;52764;51.036;5.852;2024-03-08T03:23:39;4.43;68.11
65995;HTU21D;52764;51.036;5.852;2024-03-08T03:26:08;4.37;68.39
65995;HTU21D;52764;51.036;5.852;2024-03-08T03:28:37;4.27;68.68
65995;HTU21D;52764;51.036;5.852;2024-03-08T03:31:08;4.31;68.52
65995;HTU21D;52764;51.036;5.852;2024-03-08T03:33:40;4.37;68.12
65995;HTU21D;52764;51.036;5.852;2024-03-08T03:36:06;4.39;68.01
65995;HTU21D;52764;51.036;5.852;2024-03-08T03:38:34;4.41;67.98
65995;HTU21D;52764;51.036;5.852;2024-03-08T03:41:00;4.34;68.32
65995;HTU21D;52764;51.036;5.852;2024-03-08T03:43:36;4.33;68.28
65995;HTU21D;52764;51.036;5.852;2024-03-08T03:46:06;4.31;68.38
65995;HTU21D;52764;51.036;5.852;2024-03-08T03:48:33;4.19;69.04
65995;HTU21D;52764;51.036;5.852;2024-03-08T03:50:58;4.17;68.99
65995;HTU21D;52764;51.036;5.852;2024-03-08T03:53:24;4.22;68.80
65995;HTU21D;52764;51.036;5.852;2024-03-08T03:55:51;4.17;68.97
65995;HTU21D;52764;51.036;5.852;2024-03-08T03:58:17;4.20;68.88
65995;HTU21D;52764;51.036;5.852;2024-03-08T04:00:48;4.21;68.84
65995;HTU21D;52764;51.036;5.852;2024-03-08T04:03:14;4.16;69.04
65995;HTU21D;52764;51.036;5.852;2024-03-08T04:05:40;4.15;69.04
65995;HTU21D;52764;51.036;5.852;2024-03-08T04:08:05;4.17;68.91
65995;HTU21D;52764;51.036;5.852;2024-03-08T04:10:31;4.16;69.00
65995;HTU21D;52764;51.036;5.852;2024-03-08T04:12:57;4.18;68.91
65995;HTU21D;52764;51.036;5.852;2024-03-08T04:15:23;4.16;69.10
65995;HTU21D;52764;51.036;5.852;2024-03-08T04:17:49;4.13;69.02
65995;HTU21D;52764;51.036;5.852;2024-03-08T04:20:14;4.16;68.94
65995;HTU21D;52764;51.036;5.852;2024-03-08T04:22:40;4.12;69.18
65995;HTU21D;52764;51.036;5.852;2024-03-08T04:25:07;4.10;69.19
65995;HTU21D;52764;51.036;5.852;2024-03-08T04:27:33;4.12;69.13
65995;HTU21D;52764;51.036;5.852;2024-03-08T04:30:00;4.13;69.16
65995;HTU21D;52764;51.036;5.852;2024-03-08T04:32:26;4.08;69.31
65995;HTU21D;52764;51.036;5.852;2024-03-08T04:34:51;4.05;69.33
65995;HTU21D;52764;51.036;5.852;2024-03-08T04:37:17;4.00;82.43
65995;HTU21D;52764;51.036;5.852;2024-03-08T04:39:48;4.04;69.37
65995;HTU21D;52764;51.036;5.852;2024-03-08T04:42:15;4.09;69.15
65995;HTU21D;52764;51.036;5.852;2024-03-08T04:44:41;4.06;69.22
65995;HTU21D;52764;51.036;5.852;2024-03-08T04:47:07;4.04;69.31
65995;HTU21D;52764;51.036;5.852;2024-03-08T04:49:33;4.07;69.25
65995;HTU21D;52764;51.036;5.852;2024-03-08T04:52:02;3.97;82.66
65995;HTU21D;52764;51.036;5.852;2024-03-08T04:54:29;3.88;69.96
65995;HTU21D;52764;51.036;5.852;2024-03-08T04:56:55;3.90;69.91
65995;HTU21D;52764;51.036;5.852;2024-03-08T04:59:21;3.89;69.86
65995;HTU21D;52764;51.036;5.852;2024-03-08T05:01:47;3.90;69.94
65995;HTU21D;52764;51.036;5.852;2024-03-08T05:04:15;3.85;70.32
65995;HTU21D;52764;51.036;5.852;2024-03-08T05:06:41;3.84;70.19
65995;HTU21D;52764;51.036;5.852;2024-03-08T05:09:07;3.76;70.52
65995;HTU21D;52764;51.036;5.852;2024-03-08T05:11:43;3.83;70.35
65995;HTU21D;52764;51.036;5.852;2024-03-08T05:14:14;3.68;70.98
65995;HTU21D;52764;51.036;5.852;2024-03-08T05:16:43;3.69;70.92
65995;HTU21D;52764;51.036;5.852;2024-03-08T05:19:15;3.74;70.62
65995;HTU21D;52764;51.036;5.852;2024-03-08T05:21:43;3.79;70.47
65995;HTU21D;52764;51.036;5.852;2024-03-08T05:24:09;3.76;70.71
65995;HTU21D;52764;51.036;5.852;2024-03-08T05:26:36;3.71;70.77
65995;HTU21D;52764;51.036;5.852;2024-03-08T05:29:03;3.55;71.29
65995;HTU21D;52764;51.036;5.852;2024-03-08T05:31:46;3.71;70.68
65995;HTU21D;52764;51.036;5.852;2024-03-08T05:34:13;3.67;71.00
65995;HTU21D;52764;51.036;5.852;2024-03-08T05:36:40;3.74;70.55
65995;HTU21D;52764;51.036;5.852;2024-03-08T05:39:07;3.73;70.19
65995;HTU21D;52764;51.036;5.852;2024-03-08T05:41:32;3.76;70.55
65995;HTU21D;52764;51.036;5.852;2024-03-08T05:43:58;3.72;70.69
65995;HTU21D;52764;51.036;5.852;2024-03-08T05:46:24;3.71;70.77
65995;HTU21D;52764;51.036;5.852;2024-03-08T05:48:50;3.64;71.06
65995;HTU21D;52764;51.036;5.852;2024-03-08T05:51:15;3.70;70.76
65995;HTU21D;52764;51.036;5.852;2024-03-08T05:53:41;4.95;70.54
65995;HTU21D;52764;51.036;5.852;2024-03-08T05:56:07;3.79;70.30
65995;HTU21D;52764;51.036;5.852;2024-03-08T05:58:35;3.74;70.55
65995;HTU21D;52764;51.036;5.852;2024-03-08T06:01:00;3.65;70.93
65995;HTU21D;52764;51.036;5.852;2024-03-08T06:03:26;3.73;70.70
65995;HTU21D;52764;51.036;5.852;2024-03-08T06:05:52;3.63;71.20
65995;HTU21D;52764;51.036;5.852;2024-03-08T06:08:18;3.65;71.16
65995;HTU21D;52764;51.036;5.852;2024-03-08T06:10:44;3.70;70.75
65995;HTU21D;52764;51.036;5.852;2024-03-08T06:13:10;3.69;70.97
65995;HTU21D;52764;51.036;5.852;2024-03-08T06:15:37;3.78;70.70
65995;HTU21D;52764;51.036;5.852;2024-03-08T06:18:03;3.79;70.68
65995;HTU21D;52764;51.036;5.852;2024-03-08T06:20:31;3.87;70.35
65995;HTU21D;52764;51.036;5.852;2024-03-08T06:22:57;3.93;70.13
65995;HTU21D;52764;51.036;5.852;2024-03-08T06:25:22;3.94;70.12
65995;HTU21D;52764;51.036;5.852;2024-03-08T06:27:48;4.08;70.21
65995;HTU21D;52764;51.036;5.852;2024-03-08T06:30:14;4.23;70.16
65995;HTU21D;52764;51.036;5.852;2024-03-08T06:32:41;4.36;69.99
65995;HTU21D;52764;51.036;5.852;2024-03-08T06:35:08;12.01;69.79
65995;HTU21D;52764;51.036;5.852;2024-03-08T06:37:36;4.77;69.07
65995;HTU21D;52764;51.036;5.852;2024-03-08T06:40:02;4.91;67.65
65995;HTU21D;52764;51.036;5.852;2024-03-08T06:42:33;5.12;67.69
65995;HTU21D;52764;51.036;5.852;2024-03-08T06:45:01;5.12;66.37
65995;HTU21D;52764;51.036;5.852;2024-03-08T06:47:31;5.30;66.56
65995;HTU21D;52764;51.036;5.852;2024-03-08T06:49:57;5.49;66.24
65995;HTU21D;52764;51.036;5.852;2024-03-08T06:52:23;5.61;66.23
65995;HTU21D;52764;51.036;5.852;2024-03-08T06:54:49;5.86;65.33
65995;HTU21D;52764;51.036;5.852;2024-03-08T06:57:15;5.81;64.68
65995;HTU21D;52764;51.036;5.852;2024-03-08T06:59:42;5.95;64.72
65995;HTU21D;52764;51.036;5.852;2024-03-08T07:02:08;6.02;64.22
65995;HTU21D;52764;51.036;5.852;2024-03-08T07:04:35;-10.13;64.25
65995;HTU21D;52764;51.036;5.852;2024-03-08T07:07:04;6.44;63.82
65995;HTU21D;52764;51.036;5.852;2024-03-08T07:09:30;6.52;62.05
65995;HTU21D;52764;51.036;5.852;2024-03-08T07:11:56;-28.27;63.14
65995;HTU21D;52764;51.036;5.852;2024-03-08T07:14:22;6.51;62.79
65995;HTU21D;52764;51.036;5.852;2024-03-08T07:16:49;6.58;62.48
65995;HTU21D;52764;51.036;5.852;2024-03-08T07:19:15;6.89;62.40
65995;HTU21D;52764;51.036;5.852;2024-03-08T07:21:43;7.27;61.38
65995;HTU21D;52764;51.036;5.852;2024-03-08T07:24:10;7.49;60.76
65995;HTU21D;52764;51.036;5.852;2024-03-08T07:26:42;7.72;59.37
65995;HTU21D;52764;51.036;5.852;2024-03-08T07:29:08;7.88;59.13
65995;HTU21D;52764;51.036;5.852;2024-03-08T07:31:34;8.08;57.58
65995;HTU21D;52764;51.036;5.852;2024-03-08T07:34:11;8.13;57.16
65995;HTU21D;52764;51.036;5.852;2024-03-08T07:36:36;7.88;58.20
65995;HTU21D;52764;51.036;5.852;2024-03-08T07:39:02;7.69;58.03
65995;HTU21D;52764;51.036;5.852;2024-03-08T07:41:31;7.38;58.52
65995;HTU21D;52764;51.036;5.852;2024-03-08T07:43:56;7.25;58.78
65995;HTU21D;52764;51.036;5.852;2024-03-08T07:46:22;6.78;59.46
65995;HTU21D;52764;51.036;5.852;2024-03-08T07:48:48;6.81;59.97
65995;HTU21D;52764;51.036;5.852;2024-03-08T07:51:17;6.64;60.46
65995;HTU21D;52764;51.036;5.852;2024-03-08T07:53:46;6.51;60.89
65995;HTU21D;52764;51.036;5.852;2024-03-08T07:56:11;6.71;60.49
65995;HTU21D;52764;51.036;5.852;2024-03-08T07:58:39;6.68;60.66
65995;HTU21D;52764;51.036;5.852;2024-03-08T08:01:08;6.84;60.22
65995;HTU21D;52764;51.036;5.852;2024-03-08T08:03:41;6.74;60.47
65995;HTU21D;52764;51.036;5.852;2024-03-08T08:06:07;6.71;60.53
65995;HTU21D;52764;51.036;5.852;2024-03-08T08:08:33;6.65;60.93
65995;HTU21D;52764;51.036;5.852;2024-03-08T08:10:59;6.50;61.28
65995;HTU21D;52764;51.036;5.852;2024-03-08T08:13:24;6.68;61.05
65995;HTU21D;52764;51.036;5.852;2024-03-08T08:15:50;6.56;61.17
65995;HTU21D;52764;51.036;5.852;2024-03-08T08:18:16;6.63;61.25
65995;HTU21D;52764;51.036;5.852;2024-03-08T08:20:44;6.13;71.90
65995;HTU21D;52764;51.036;5.852;2024-03-08T08:23:10;6.69;61.43
65995;HTU21D;52764;51.036;5.852;2024-03-08T08:25:36;6.79;61.17
65995;HTU21D;52764;51.036;5.852;2024-03-08T08:28:02;6.52;61.96
65995;HTU21D;52764;51.036;5.852;2024-03-08T08:30:29;6.68;61.77
65995;HTU21D;52764;51.036;5.852;2024-03-08T08:32:55;6.60;61.73
65995;HTU21D;52764;51.036;5.852;2024-03-08T08:35:23;6.56;62.21
65995;HTU21D;52764;51.036;5.852;2024-03-08T08:37:49;6.73;61.69
65995;HTU21D;52764;51.036;5.852;2024-03-08T08:40:15;6.78;61.79
65995;HTU21D;52764;51.036;5.852;2024-03-08T08:42:43;6.97;61.67
65995;HTU21D;52764;51.036;5.852;2024-03-08T08:45:10;7.00;61.15
65995;HTU21D;52764;51.036;5.852;2024-03-08T08:47:36;6.93;62.01
65995;HTU21D;52764;51.036;5.852;2024-03-08T08:50:03;6.97;61.51
65995;HTU21D;52764;51.036;5.852;2024-03-08T08:52:31;7.08;61.47
65995;HTU21D;52764;51.036;5.852;2024-03-08T08:54:57;7.02;61.37
65995;HTU21D;52764;51.036;5.852;2024-03-08T08:57:23;7.20;61.57
65995;HTU21D;52764;51.036;5.852;2024-03-08T08:59:49;7.41;61.29
65995;HTU21D;52764;51.036;5.852;2024-03-08T09:02:15;7.30;60.85
65995;HTU21D;52764;51.036;5.852;2024-03-08T09:04:42;7.33;60.57
65995;HTU21D;52764;51.036;5.852;2024-03-08T09:07:09;7.30;60.60
65995;HTU21D;52764;51.036;5.852;2024-03-08T09:09:35;7.34;60.75
65995;HTU21D;52764;51.036;5.852;2024-03-08T09:12:01;7.37;60.54
65995;HTU21D;52764;51.036;5.852;2024-03-08T09:14:27;7.38;61.12
65995;HTU21D;52764;51.036;5.852;2024-03-08T09:16:53;7.50;60.50
65995;HTU21D;52764;51.036;5.852;2024-03-08T09:19:19;7.31;59.88
65995;HTU21D;52764;51.036;5.852;2024-03-08T09:21:50;7.29;59.89
65995;HTU21D;52764;51.036;5.852;2024-03-08T09:24:16;7.19;60.58
65995;HTU21D;52764;51.036;5.852;2024-03-08T09:26:42;7.28;60.37
65995;HTU21D;52764;51.036;5.852;2024-03-08T09:29:09;7.32;60.59
65995;HTU21D;52764;51.036;5.852;2024-03-08T09:31:36;7.50;60.21
65995;HTU21D;52764;51.036;5.852;2024-03-08T09:34:03;7.56;60.44
65995;HTU21D;52764;51.036;5.852;2024-03-08T09:36:29;7.54;59.62
65995;HTU21D;52764;51.036;5.852;2024-03-08T09:38:58;7.01;59.90
65995;HTU21D;52764;51.036;5.852;2024-03-08T09:41:23;7.44;59.70
65995;HTU21D;52764;51.036;5.852;2024-03-08T09:43:49;7.58;59.43
65995;HTU21D;52764;51.036;5.852;2024-03-08T09:46:15;7.47;59.22
65995;HTU21D;52764;51.036;5.852;2024-03-08T09:48:42;7.61;59.82
65995;HTU21D;52764;51.036;5.852;2024-03-08T09:51:09;7.61;58.93
65995;HTU21D;52764;51.036;5.852;2024-03-08T09:53:39;7.75;59.73
65995;HTU21D;52764;51.036;5.852;2024-03-08T09:56:05;7.64;59.69
65995;HTU21D;52764;51.036;5.852;2024-03-08T09:58:31;7.73;63.44
65995;HTU21D;52764;51.036;5.852;2024-03-08T10:01:07;7.69;58.57
65995;HTU21D;52764;51.036;5.852;2024-03-08T10:03:33;7.64;59.61
65995;HTU21D;52764;51.036;5.852;2024-03-08T10:06:02;7.62;59.86
65995;HTU21D;52764;51.036;5.852;2024-03-08T10:08:28;7.77;59.21
65995;HTU21D;52764;51.036;5.852;2024-03-08T10:10:57;7.83;59.90
65995;HTU21D;52764;51.036;5.852;2024-03-08T10:13:26;8.06;59.18
65995;HTU21D;52764;51.036;5.852;2024-03-08T10:15:53;7.96;58.81
65995;HTU21D;52764;51.036;5.852;2024-03-08T10:18:19;7.99;58.50
65995;HTU21D;52764;51.036;5.852;2024-03-08T10:20:45;7.91;61.28
65995;HTU21D;52764;51.036;5.852;2024-03-08T10:23:11;7.93;59.09
65995;HTU21D;52764;51.036;5.852;2024-03-08T10:25:38;8.00;58.64
65995;HTU21D;52764;51.036;5.852;2024-03-08T10:28:04;8.01;59.67
65995;HTU21D;52764;51.036;5.852;2024-03-08T10:30:30;8.41;58.64
65995;HTU21D;52764;51.036;5.852;2024-03-08T10:32:56;8.41;58.22
65995;HTU21D;52764;51.036;5.852;2024-03-08T10:35:23;8.24;57.67
65995;HTU21D;52764;51.036;5.852;2024-03-08T10:37:51;8.18;57.71
65995;HTU21D;52764;51.036;5.852;2024-03-08T10:40:30;8.19;58.51
65995;HTU21D;52764;51.036;5.852;2024-03-08T10:42:58;8.45;58.51
65995;HTU21D;52764;51.036;5.852;2024-03-08T10:45:36;8.53;58.21
65995;HTU21D;52764;51.036;5.852;2024-03-08T10:48:33;8.70;58.13
65995;HTU21D;52764;51.036;5.852;2024-03-08T10:51:03;8.88;58.44
65995;HTU21D;52764;51.036;5.852;2024-03-08T10:53:29;8.88;56.93
65995;HTU21D;52764;51.036;5.852;2024-03-08T10:55:58;8.86;56.40
65995;HTU21D;52764;51.036;5.852;2024-03-08T10:58:26;8.89;56.74
65995;HTU21D;52764;51.036;5.852;2024-03-08T11:00:56;9.07;56.54
65995;HTU21D;52764;51.036;5.852;2024-03-08T11:06:07;9.27;55.70
65995;HTU21D;52764;51.036;5.852;2024-03-08T11:08:37;9.17;56.33
65995;HTU21D;52764;51.036;5.852;2024-03-08T11:11:05;9.35;56.16
65995;HTU21D;52764;51.036;5.852;2024-03-08T11:16:07;-22.27;53.84
65995;HTU21D;52764;51.036;5.852;2024-03-08T11:18:36;9.55;55.41
65995;HTU21D;52764;51.036;5.852;2024-03-08T11:21:08;9.59;54.89
65995;HTU21D;52764;51.036;5.852;2024-03-08T11:23:40;9.53;52.89
65995;HTU21D;52764;51.036;5.852;2024-03-08T11:26:19;9.61;52.53
65995;HTU21D;52764;51.036;5.852;2024-03-08T11:28:45;9.67;53.27
65995;HTU21D;52764;51.036;5.852;2024-03-08T11:32:45;9.80;53.22
65995;HTU21D;52764;51.036;5.852;2024-03-08T11:35:20;10.00;53.23
65995;HTU21D;52764;51.036;5.852;2024-03-08T11:37:46;9.93;51.50
65995;HTU21D;52764;51.036;5.852;2024-03-08T11:40:12;9.85;52.41
65995;HTU21D;52764;51.036;5.852;2024-03-08T11:42:48;8.94;51.96
65995;HTU21D;52764;51.036;5.852;2024-03-08T11:45:18;9.96;52.11
65995;HTU21D;52764;51.036;5.852;2024-03-08T11:47:47;10.06;51.91
65995;HTU21D;52764;51.036;5.852;2024-03-08T11:50:14;10.21;51.59
65995;HTU21D;52764;51.036;5.852;2024-03-08T11:52:41;10.30;51.49
65995;HTU21D;52764;51.036;5.852;2024-03-08T11:55:08;10.24;51.30
65995;HTU21D;52764;51.036;5.852;2024-03-08T11:57:34;10.31;50.92
65995;HTU21D;52764;51.036;5.852;2024-03-08T12:00:02;10.20;50.66
65995;HTU21D;52764;51.036;5.852;2024-03-08T12:02:34;10.13;51.14
65995;HTU21D;52764;51.036;5.852;2024-03-08T12:05:05;10.27;51.88
65995;HTU21D;52764;51.036;5.852;2024-03-08T12:07:35;10.39;51.43
65995;HTU21D;52764;51.036;5.852;2024-03-08T12:10:21;10.49;51.50
